Time;durP1;ratioP1;P1;durP2;ratioP2;P2;SDS_P1;SDS_P2;PMS_P1;PMS_P2;Temp;Humidity;BMP_temperature;BMP_pressure;BME280_temperature;BME280_humidity;BME280_pressure;Samples;Min_cycle;Max_cycle;Signal;HPM_P1;HPM_P2
2022/08/03 00:01:32;;;;;;;5.30;1.95;;;20.10;99.90;;;;;;5061805;28;20426;-74
2022/08/03 00:03:58;;;;;;;9.27;1.90;;;20.10;99.90;;;;;;5066543;28;20457;-73
2022/08/03 00:06:24;;;;;;;10.98;2.20;;;20.10;99.90;;;;;;5066468;28;20730;-73
2022/08/03 00:08:50;;;;;;;6.20;2.00;;;20.10;99.90;;;;;;5069661;28;20045;-73
2022/08/03 00:11:16;;;;;;;7.72;2.00;;;20.10;99.90;;;;;;5070400;28;20097;-74
2022/08/03 00:13:42;;;;;;;8.85;1.88;;;20.00;99.90;;;;;;5064550;28;20090;-73
2022/08/03 00:16:09;;;;;;;8.15;1.83;;;20.00;99.90;;;;;;5071650;28;20040;-73
2022/08/03 00:18:36;;;;;;;7.45;2.00;;;20.00;99.90;;;;;;5067070;28;20456;-73
2022/08/03 00:21:02;;;;;;;7.43;2.38;;;19.90;99.90;;;;;;5060388;28;20141;-74
2022/08/03 00:23:28;;;;;;;8.50;2.42;;;19.80;99.90;;;;;;5067301;28;20082;-73
2022/08/03 00:25:54;;;;;;;8.85;2.40;;;19.80;99.90;;;;;;5069281;28;20486;-73
2022/08/03 00:28:20;;;;;;;9.45;2.45;;;19.80;99.90;;;;;;5050735;28;20406;-73
2022/08/03 00:30:46;;;;;;;11.07;2.58;;;19.80;99.90;;;;;;5066936;28;20036;-73
2022/08/03 00:33:11;;;;;;;9.55;2.90;;;19.80;99.90;;;;;;5070757;28;20536;-73
2022/08/03 00:35:37;;;;;;;10.73;2.70;;;19.80;99.90;;;;;;5068400;28;20046;-73
2022/08/03 00:38:04;;;;;;;10.25;2.65;;;19.70;99.90;;;;;;5069285;28;20052;-73
2022/08/03 00:40:30;;;;;;;7.85;2.40;;;19.70;99.90;;;;;;5068071;28;20040;-73
2022/08/03 00:42:57;;;;;;;13.00;3.13;;;19.70;99.90;;;;;;5071326;28;20490;-73
2022/08/03 00:45:35;;;;;;;7.72;3.30;;;19.60;99.90;;;;;;5082079;28;20037;-73
2022/08/03 00:48:01;;;;;;;10.25;2.97;;;19.60;99.90;;;;;;5073301;28;20036;-73
2022/08/03 00:50:30;;;;;;;7.72;3.00;;;19.50;99.90;;;;;;5071319;28;20078;-73
2022/08/03 00:52:58;;;;;;;7.22;3.00;;;19.50;99.90;;;;;;5072801;28;20063;-73
2022/08/03 00:55:25;;;;;;;7.28;2.75;;;19.50;99.90;;;;;;5065019;28;20052;-73
2022/08/03 00:57:51;;;;;;;9.93;3.65;;;19.50;99.90;;;;;;5068627;28;20040;-73
2022/08/03 01:00:21;;;;;;;10.65;3.60;;;19.40;99.90;;;;;;5070066;28;20483;-73
2022/08/03 01:02:47;;;;;;;13.45;3.25;;;19.40;99.90;;;;;;5063487;28;20025;-73
2022/08/03 01:05:13;;;;;;;9.55;3.22;;;19.40;99.90;;;;;;5065385;28;20066;-74
2022/08/03 01:08:02;;;;;;;9.70;3.15;;;19.30;99.90;;;;;;5067199;28;20041;-73
2022/08/03 01:10:44;;;;;;;10.48;3.17;;;19.30;99.90;;;;;;5073883;28;20121;-73
2022/08/03 01:13:37;;;;;;;10.88;3.47;;;19.10;99.90;;;;;;5069229;28;20048;-73
2022/08/03 01:16:20;;;;;;;12.88;3.45;;;19.00;99.90;;;;;;5071075;28;20048;-73
2022/08/03 01:18:52;;;;;;;10.05;3.22;;;18.90;99.90;;;;;;5076748;28;20037;-73
2022/08/03 01:21:46;;;;;;;;;;;18.90;99.90;;;;;;5062007;28;20123;-73
2022/08/03 01:24:40;;;;;;;7.68;2.85;;;18.90;99.90;;;;;;5062550;28;20010;-73
2022/08/03 01:27:17;;;;;;;7.53;3.13;;;18.80;99.90;;;;;;5070657;28;20043;-73
2022/08/03 01:29:52;;;;;;;6.32;3.15;;;18.80;99.90;;;;;;5067328;28;20123;-73
2022/08/03 01:32:23;;;;;;;7.40;3.55;;;18.80;99.90;;;;;;5047063;28;20078;-73
2022/08/03 01:35:03;;;;;;;10.03;2.97;;;18.80;99.90;;;;;;5075397;28;20082;-73
2022/08/03 01:37:50;;;;;;;10.07;3.05;;;18.80;99.90;;;;;;5065154;28;20051;-73
2022/08/03 01:40:19;;;;;;;6.00;2.90;;;18.80;99.90;;;;;;5068684;28;20067;-73
2022/08/03 01:42:47;;;;;;;9.20;2.78;;;18.80;99.90;;;;;;5068499;28;20032;-73
2022/08/03 01:45:16;;;;;;;7.68;3.30;;;18.80;99.90;;;;;;5057241;28;20487;-73
2022/08/03 01:47:45;;;;;;;11.95;3.40;;;18.80;99.90;;;;;;5060888;28;20134;-73
2022/08/03 01:50:12;;;;;;;10.50;3.28;;;18.80;99.90;;;;;;5066995;28;20048;-73
2022/08/03 01:52:40;;;;;;;12.70;3.65;;;18.80;99.90;;;;;;5065505;28;20032;-73
2022/08/03 01:55:08;;;;;;;9.18;3.35;;;18.80;99.90;;;;;;5087987;28;20074;-73
2022/08/03 01:57:36;;;;;;;13.65;3.85;;;18.80;99.90;;;;;;5066769;28;20037;-73
2022/08/03 02:00:03;;;;;;;10.10;3.40;;;18.80;99.90;;;;;;5065861;28;20043;-73
2022/08/03 02:02:31;;;;;;;9.38;3.40;;;18.70;99.90;;;;;;5069214;28;20032;-73
2022/08/03 02:04:59;;;;;;;7.07;3.63;;;18.60;99.90;;;;;;5065190;28;20041;-73
2022/08/03 02:07:26;;;;;;;8.00;3.50;;;18.50;99.90;;;;;;5069163;28;20119;-73
2022/08/03 02:09:53;;;;;;;10.10;3.63;;;18.50;99.90;;;;;;5087417;28;20044;-73
2022/08/03 02:12:22;;;;;;;11.18;3.30;;;18.40;99.90;;;;;;5067026;28;20082;-73
2022/08/03 02:14:49;;;;;;;9.05;3.53;;;18.50;99.90;;;;;;5088799;28;20028;-73
2022/08/03 02:17:15;;;;;;;10.05;3.75;;;18.50;99.90;;;;;;5082968;28;20047;-73
2022/08/03 02:19:42;;;;;;;13.77;3.53;;;18.50;99.90;;;;;;5067762;28;20036;-73
2022/08/03 02:22:10;;;;;;;13.05;3.80;;;18.50;99.90;;;;;;5069279;28;20090;-73
2022/08/03 02:24:36;;;;;;;9.93;3.42;;;18.50;99.90;;;;;;5069566;28;20083;-73
2022/08/03 02:27:06;;;;;;;8.80;3.60;;;18.50;99.90;;;;;;5066301;28;20044;-73
2022/08/03 02:29:34;;;;;;;9.27;3.80;;;18.50;99.90;;;;;;5078476;28;20042;-73
2022/08/03 02:32:03;;;;;;;7.75;3.50;;;18.50;99.90;;;;;;5053237;28;20044;-73
2022/08/03 02:34:32;;;;;;;7.43;3.50;;;18.50;99.90;;;;;;5069698;28;20040;-73
2022/08/03 02:37:18;;;;;;;9.32;3.45;;;18.50;99.90;;;;;;5065617;28;20052;-73
2022/08/03 02:40:06;;;;;;;9.23;3.60;;;18.40;99.90;;;;;;5084649;28;20424;-73
2022/08/03 02:42:56;;;;;;;12.20;3.60;;;18.40;99.90;;;;;;5061010;28;20078;-73
2022/08/03 02:45:45;;;;;;;11.88;3.75;;;18.30;99.90;;;;;;5058001;28;20064;-73
2022/08/03 02:48:16;;;;;;;14.48;4.32;;;18.30;99.90;;;;;;5068304;28;20037;-73
2022/08/03 02:50:44;;;;;;;8.57;3.42;;;18.30;99.90;;;;;;5058270;28;20078;-73
2022/08/03 02:53:11;;;;;;;11.32;3.47;;;18.30;99.90;;;;;;5066413;28;20326;-73
2022/08/03 02:55:38;;;;;;;12.30;3.90;;;18.40;99.90;;;;;;5074039;28;20032;-74
2022/08/03 02:58:05;;;;;;;10.75;3.90;;;18.40;99.90;;;;;;5068890;28;20064;-73
2022/08/03 03:00:33;;;;;;;10.25;4.00;;;18.40;99.90;;;;;;5067145;28;20036;-73
2022/08/03 03:03:01;;;;;;;13.55;3.90;;;18.40;99.90;;;;;;5065677;28;20063;-73
2022/08/03 03:05:27;;;;;;;12.68;3.97;;;18.40;99.90;;;;;;5068804;28;20051;-73
2022/08/03 03:07:54;;;;;;;13.45;4.22;;;18.40;99.90;;;;;;5065585;28;20479;-73
2022/08/03 03:10:21;;;;;;;12.80;3.95;;;18.40;99.90;;;;;;5064996;28;20106;-74
2022/08/03 03:12:51;;;;;;;14.07;4.20;;;18.40;99.90;;;;;;5068941;28;20035;-73
2022/08/03 03:15:17;;;;;;;11.25;4.22;;;18.40;99.90;;;;;;5067170;28;20040;-73
2022/08/03 03:17:43;;;;;;;13.20;4.30;;;18.40;99.90;;;;;;5053497;28;20089;-73
2022/08/03 03:20:10;;;;;;;7.85;4.10;;;18.40;99.90;;;;;;5064672;28;20068;-73
2022/08/03 03:22:36;;;;;;;11.70;4.10;;;18.30;99.90;;;;;;5064765;28;20044;-73
2022/08/03 03:25:04;;;;;;;7.40;3.85;;;18.30;99.90;;;;;;5068042;28;20044;-73
2022/08/03 03:27:30;;;;;;;11.45;3.85;;;18.30;99.90;;;;;;5063510;28;20049;-74
2022/08/03 03:29:57;;;;;;;11.63;3.78;;;18.30;99.90;;;;;;5065795;28;20055;-72
2022/08/03 03:32:23;;;;;;;11.82;4.22;;;18.30;99.90;;;;;;5065298;28;20036;-73
2022/08/03 03:34:49;;;;;;;14.50;4.00;;;18.30;99.90;;;;;;5067512;28;20033;-73
2022/08/03 03:37:15;;;;;;;9.65;3.70;;;18.30;99.90;;;;;;5075066;28;20142;-73
2022/08/03 03:39:40;;;;;;;7.80;3.67;;;18.20;99.90;;;;;;5072443;28;20060;-73
2022/08/03 03:42:06;;;;;;;7.40;3.75;;;18.20;99.90;;;;;;5066415;28;20040;-73
2022/08/03 03:44:32;;;;;;;12.20;4.30;;;18.20;99.90;;;;;;5071757;28;20471;-73
2022/08/03 03:46:58;;;;;;;11.43;3.47;;;18.20;99.90;;;;;;5067420;28;20047;-73
2022/08/03 03:49:23;;;;;;;12.43;3.80;;;18.20;99.90;;;;;;5089515;28;20390;-73
2022/08/03 03:51:55;;;;;;;8.65;3.60;;;18.20;99.90;;;;;;5071444;28;20040;-73
2022/08/03 03:54:21;;;;;;;10.05;3.45;;;18.20;99.90;;;;;;5052543;28;20086;-73
2022/08/03 03:56:47;;;;;;;14.15;3.60;;;18.20;99.90;;;;;;5071206;28;20094;-73
2022/08/03 03:59:13;;;;;;;10.93;3.63;;;18.20;99.90;;;;;;5072546;28;20052;-73
2022/08/03 04:01:38;;;;;;;11.20;3.72;;;18.20;99.90;;;;;;5065760;28;20123;-73
2022/08/03 04:12:36;;;;;;;9.27;3.03;;;18.10;99.90;;;;;;5068758;28;20041;-73
2022/08/03 04:15:03;;;;;;;11.70;3.50;;;18.00;99.90;;;;;;5051483;28;20133;-73
2022/08/03 04:17:29;;;;;;;13.00;3.33;;;18.00;99.90;;;;;;5070358;28;20040;-73
2022/08/03 04:19:56;;;;;;;9.50;3.58;;;18.00;99.90;;;;;;5068787;28;20105;-73
2022/08/03 04:22:26;;;;;;;9.75;3.47;;;18.10;99.90;;;;;;5067021;28;20109;-73
2022/08/03 04:25:00;;;;;;;8.90;2.90;;;18.10;99.90;;;;;;5061660;28;20041;-73
2022/08/03 04:27:30;;;;;;;12.27;3.40;;;18.10;99.90;;;;;;5071122;28;20043;-73
2022/08/03 04:29:56;;;;;;;11.65;3.65;;;18.00;99.90;;;;;;5069554;28;20076;-73
2022/08/03 04:32:25;;;;;;;11.38;3.92;;;18.10;99.90;;;;;;5071112;28;20079;-73
2022/08/03 04:34:51;;;;;;;11.13;3.38;;;18.10;99.90;;;;;;5069659;28;20093;-73
2022/08/03 04:37:36;;;;;;;12.27;3.60;;;18.10;99.90;;;;;;5090549;28;20044;-73
2022/08/03 04:40:07;;;;;;;7.40;3.10;;;18.10;99.90;;;;;;5056978;28;20036;-73
2022/08/03 04:42:34;;;;;;;9.93;3.10;;;18.10;99.90;;;;;;5084477;28;20127;-73
2022/08/03 04:45:02;;;;;;;10.63;3.75;;;18.10;99.90;;;;;;5067663;28;20040;-73
2022/08/03 04:47:31;;;;;;;10.13;3.75;;;18.10;99.90;;;;;;5070693;28;20052;-73
2022/08/03 04:49:57;;;;;;;17.45;4.32;;;18.10;99.90;;;;;;5066245;28;20356;-73
2022/08/03 04:52:23;;;;;;;13.30;3.88;;;18.10;99.90;;;;;;5085878;28;20044;-73
2022/08/03 04:54:48;;;;;;;10.90;4.25;;;18.10;99.90;;;;;;5070316;28;20059;-73
2022/08/03 04:57:14;;;;;;;11.50;3.95;;;18.20;99.90;;;;;;5070537;28;20041;-73
2022/08/03 04:59:40;;;;;;;9.48;4.43;;;18.20;99.90;;;;;;5069232;28;20123;-73
2022/08/03 05:02:05;;;;;;;15.27;3.95;;;18.30;99.90;;;;;;5049195;28;20040;-73
2022/08/03 05:04:31;;;;;;;14.43;3.90;;;18.30;99.90;;;;;;5066762;28;20037;-73
2022/08/03 05:06:57;;;;;;;12.35;3.83;;;18.30;99.90;;;;;;5053578;28;20044;-73
2022/08/03 05:09:22;;;;;;;13.15;4.13;;;18.40;99.90;;;;;;5068867;28;20068;-73
2022/08/03 05:11:48;;;;;;;9.95;3.97;;;18.40;99.90;;;;;;5066581;28;20044;-73
2022/08/03 05:14:14;;;;;;;10.50;4.22;;;18.40;99.90;;;;;;5070242;28;20391;-73
2022/08/03 05:16:39;;;;;;;11.38;4.43;;;18.40;99.90;;;;;;5065472;28;20041;-73
2022/08/03 05:19:05;;;;;;;11.30;4.40;;;18.40;99.90;;;;;;5067150;28;20032;-73
2022/08/03 05:21:31;;;;;;;12.77;4.35;;;18.40;99.90;;;;;;5066687;28;20115;-73
2022/08/03 05:23:56;;;;;;;12.55;4.57;;;18.50;99.90;;;;;;5062451;28;20097;-73
2022/08/03 05:26:22;;;;;;;19.00;5.03;;;18.50;99.90;;;;;;5068177;28;20047;-73
2022/08/03 05:28:47;;;;;;;13.48;4.45;;;18.60;99.90;;;;;;5066743;28;20487;-73
2022/08/03 05:31:13;;;;;;;12.02;4.45;;;18.70;99.90;;;;;;5070905;28;20082;-73
2022/08/03 05:33:39;;;;;;;12.35;4.47;;;18.70;99.90;;;;;;5067134;28;20131;-73
2022/08/03 05:36:05;;;;;;;13.20;4.85;;;18.80;99.90;;;;;;5065155;28;20502;-73
2022/08/03 05:38:31;;;;;;;12.82;4.65;;;18.90;99.90;;;;;;5065751;28;20040;-73
2022/08/03 05:40:57;;;;;;;20.10;4.85;;;18.90;99.90;;;;;;5065150;28;20590;-73
2022/08/03 05:43:23;;;;;;;14.05;4.35;;;18.90;99.90;;;;;;5063894;28;20124;-73
2022/08/03 05:45:49;;;;;;;12.60;4.72;;;19.00;99.90;;;;;;5066636;28;20041;-73
2022/08/03 05:48:14;;;;;;;16.83;5.13;;;19.00;99.90;;;;;;5068909;28;20032;-73
2022/08/03 05:50:40;;;;;;;11.80;4.38;;;19.10;99.90;;;;;;5065474;28;20040;-74
2022/08/03 05:53:05;;;;;;;13.40;4.38;;;19.20;99.90;;;;;;5066097;28;20139;-73
2022/08/03 05:55:31;;;;;;;14.18;4.00;;;19.20;99.90;;;;;;5067734;28;20041;-73
2022/08/03 05:57:57;;;;;;;14.10;4.35;;;19.30;99.90;;;;;;5069320;28;20029;-74
2022/08/03 06:00:23;;;;;;;18.20;4.35;;;19.40;99.90;;;;;;5070207;28;20048;-73
2022/08/03 06:02:48;;;;;;;11.80;4.30;;;19.50;99.90;;;;;;5068935;28;20032;-73
2022/08/03 06:05:14;;;;;;;14.60;4.20;;;19.60;99.90;;;;;;5063987;28;20593;-73
2022/08/03 06:07:40;;;;;;;18.38;4.55;;;19.70;99.90;;;;;;5062181;28;20131;-73
2022/08/03 06:10:06;;;;;;;10.52;4.55;;;19.70;99.90;;;;;;5062435;28;20037;-73
2022/08/03 06:12:34;;;;;;;12.43;3.95;;;19.80;99.90;;;;;;5063663;28;20443;-73
2022/08/03 06:15:01;;;;;;;13.07;4.35;;;19.80;99.90;;;;;;5062770;28;20048;-73
2022/08/03 06:17:27;;;;;;;17.80;4.82;;;20.00;99.90;;;;;;5070284;28;20066;-73
2022/08/03 06:19:53;;;;;;;13.45;3.90;;;20.00;99.90;;;;;;5065716;28;20124;-73
2022/08/03 06:22:19;;;;;;;10.07;4.28;;;20.10;99.90;;;;;;5063292;28;20068;-74
2022/08/03 06:24:45;;;;;;;17.15;4.40;;;20.20;99.90;;;;;;5081824;28;20049;-73
2022/08/03 06:27:11;;;;;;;20.63;4.07;;;20.30;99.90;;;;;;5064383;28;20425;-73
2022/08/03 06:29:37;;;;;;;13.15;4.53;;;20.40;99.90;;;;;;5063652;28;20143;-73
2022/08/03 06:32:02;;;;;;;13.15;4.25;;;20.40;99.90;;;;;;5064358;28;20123;-73
2022/08/03 06:34:28;;;;;;;13.40;4.05;;;20.50;99.90;;;;;;5066124;28;20055;-73
2022/08/03 06:36:54;;;;;;;15.02;4.38;;;20.50;99.90;;;;;;5063586;28;20499;-73
2022/08/03 06:39:20;;;;;;;16.90;4.18;;;20.60;99.90;;;;;;5068015;28;20470;-73
2022/08/03 06:41:46;;;;;;;15.77;4.05;;;20.60;99.90;;;;;;5063886;28;20048;-73
2022/08/03 06:44:12;;;;;;;15.55;4.50;;;20.60;99.90;;;;;;5067317;28;20479;-74
2022/08/03 06:46:38;;;;;;;15.25;4.47;;;20.70;99.90;;;;;;5062795;28;20532;-73
2022/08/03 06:49:04;;;;;;;13.02;4.13;;;20.70;99.90;;;;;;5061200;28;20486;-73
2022/08/03 06:51:29;;;;;;;12.48;3.92;;;20.70;99.90;;;;;;5062396;28;20507;-73
2022/08/03 06:53:55;;;;;;;13.68;4.18;;;20.70;99.90;;;;;;5068535;28;20494;-74
2022/08/03 06:56:21;;;;;;;14.02;4.00;;;20.70;99.90;;;;;;5061724;28;20666;-74
2022/08/03 06:58:47;;;;;;;23.38;4.43;;;20.80;99.90;;;;;;5067848;28;20546;-74
2022/08/03 07:01:13;;;;;;;17.20;4.22;;;20.80;99.90;;;;;;5067086;28;20044;-74
2022/08/03 07:03:39;;;;;;;14.70;4.18;;;20.80;99.90;;;;;;5066542;28;20024;-74
2022/08/03 07:06:06;;;;;;;13.60;3.88;;;20.90;99.90;;;;;;5072060;28;20037;-74
2022/08/03 07:08:31;;;;;;;18.58;4.22;;;21.00;99.90;;;;;;5069203;28;20056;-73
2022/08/03 07:10:57;;;;;;;15.57;3.88;;;21.10;99.90;;;;;;5061477;28;20048;-74
2022/08/03 07:13:23;;;;;;;12.50;3.80;;;21.20;99.90;;;;;;5068381;28;20382;-74
2022/08/03 07:15:48;;;;;;;14.20;3.80;;;21.30;99.90;;;;;;5069980;28;20040;-74
2022/08/03 07:18:14;;;;;;;15.10;3.90;;;21.30;99.90;;;;;;5065049;28;20514;-74
2022/08/03 07:20:40;;;;;;;15.85;4.18;;;21.30;99.90;;;;;;5063170;28;20074;-74
2022/08/03 07:23:05;;;;;;;14.38;3.72;;;21.30;99.90;;;;;;5070385;28;20045;-74
2022/08/03 07:25:31;;;;;;;16.10;4.20;;;21.40;99.90;;;;;;5058304;28;20077;-74
2022/08/03 07:27:57;;;;;;;10.95;3.95;;;21.40;99.90;;;;;;5067035;28;20193;-74
2022/08/03 07:30:22;;;;;;;20.17;4.45;;;21.40;99.90;;;;;;5082870;28;20036;-74
2022/08/03 07:32:48;;;;;;;19.42;4.40;;;21.50;99.90;;;;;;5067680;28;20170;-74
2022/08/03 07:35:13;;;;;;;14.68;3.88;;;21.70;99.90;;;;;;5068251;28;20068;-74
2022/08/03 07:37:39;;;;;;;20.55;3.95;;;21.60;99.90;;;;;;5067666;28;20074;-74
2022/08/03 07:40:05;;;;;;;16.77;4.20;;;21.60;99.90;;;;;;5067057;28;20036;-75
2022/08/03 07:42:31;;;;;;;13.27;4.45;;;21.70;99.90;;;;;;5061761;28;20079;-73
2022/08/03 07:44:58;;;;;;;19.63;4.93;;;21.70;99.90;;;;;;5065895;28;20487;-74
2022/08/03 07:47:29;;;;;;;14.27;4.15;;;21.80;99.90;;;;;;5077754;28;20041;-73
2022/08/03 07:49:56;;;;;;;18.40;4.40;;;21.90;99.90;;;;;;5064541;28;20045;-74
2022/08/03 07:55:06;;;;;;;20.10;4.47;;;21.90;99.90;;;;;;5069049;28;20040;-74
2022/08/03 07:57:32;;;;;;;18.92;4.15;;;22.00;99.90;;;;;;5070048;28;20049;-74
2022/08/03 07:59:58;;;;;;;26.35;4.80;;;22.10;99.90;;;;;;5063682;28;20112;-77
2022/08/03 08:02:24;;;;;;;19.85;4.03;;;22.20;99.90;;;;;;5066829;28;20470;-77
2022/08/03 08:04:50;;;;;;;17.73;5.07;;;22.30;99.90;;;;;;5065395;28;20043;-77
2022/08/03 08:07:16;;;;;;;15.05;4.15;;;22.40;99.90;;;;;;5067739;28;20032;-76
2022/08/03 08:09:41;;;;;;;19.23;4.25;;;22.50;99.90;;;;;;5060311;28;20038;-77
2022/08/03 08:12:08;;;;;;;19.42;4.45;;;22.50;99.90;;;;;;5061056;28;20075;-73
2022/08/03 08:14:34;;;;;;;19.60;4.75;;;22.60;99.90;;;;;;5064613;28;20040;-74
2022/08/03 08:17:00;;;;;;;16.70;3.88;;;22.70;99.90;;;;;;5067667;28;20048;-74
2022/08/03 08:19:26;;;;;;;19.90;4.40;;;22.70;99.90;;;;;;5070108;28;20443;-73
2022/08/03 08:21:51;;;;;;;17.60;4.50;;;22.80;99.90;;;;;;5068326;28;20094;-74
2022/08/03 08:24:17;;;;;;;17.10;4.38;;;23.00;99.90;;;;;;5067723;28;20545;-73
2022/08/03 08:26:42;;;;;;;17.88;3.92;;;23.10;99.90;;;;;;5063363;28;20444;-73
2022/08/03 08:29:08;;;;;;;15.75;4.30;;;23.20;99.90;;;;;;5063218;28;20411;-72
2022/08/03 08:31:34;;;;;;;16.65;3.90;;;23.30;99.90;;;;;;5067513;28;20483;-73
2022/08/03 08:34:04;;;;;;;17.30;3.65;;;23.40;99.90;;;;;;5062557;28;20110;-73
2022/08/03 08:36:33;;;;;;;17.33;3.85;;;23.40;99.90;;;;;;5072836;28;20040;-73
2022/08/03 08:39:00;;;;;;;15.20;3.85;;;23.50;99.90;;;;;;5068382;28;20045;-73
2022/08/03 08:41:26;;;;;;;16.13;3.92;;;23.40;99.90;;;;;;5074114;28;20044;-73
2022/08/03 08:43:52;;;;;;;17.63;4.38;;;23.50;99.90;;;;;;5065464;28;20059;-74
2022/08/03 08:46:19;;;;;;;16.80;3.60;;;23.60;99.90;;;;;;5070874;28;20055;-74
2022/08/03 08:48:47;;;;;;;20.73;4.22;;;23.70;99.90;;;;;;5072052;28;20036;-74
2022/08/03 08:51:15;;;;;;;15.82;3.80;;;23.90;99.90;;;;;;5061915;28;20187;-73
2022/08/03 08:53:44;;;;;;;16.95;3.70;;;24.00;99.90;;;;;;5062914;28;20147;-73
2022/08/03 08:56:16;;;;;;;15.32;3.70;;;24.10;99.90;;;;;;5069004;28;20048;-73
2022/08/03 08:58:51;;;;;;;12.65;3.22;;;24.30;99.90;;;;;;5064254;28;20037;-74
2022/08/03 09:01:19;;;;;;;15.63;3.85;;;24.30;99.90;;;;;;5071901;28;20040;-73
2022/08/03 09:03:45;;;;;;;15.05;3.30;;;24.50;99.90;;;;;;5071573;28;20044;-73
2022/08/03 09:06:11;;;;;;;12.68;3.53;;;24.70;99.90;;;;;;5070658;28;20079;-73
2022/08/03 09:08:36;;;;;;;16.50;3.95;;;24.80;99.90;;;;;;5066620;28;20426;-73
2022/08/03 09:11:02;;;;;;;14.32;3.53;;;24.90;99.90;;;;;;5072180;28;20535;-73
2022/08/03 09:13:29;;;;;;;16.63;3.53;;;25.10;99.90;;;;;;5071866;28;20032;-73
2022/08/03 09:16:13;;;;;;;17.33;3.45;;;25.30;99.90;;;;;;5068493;28;20072;-73
2022/08/03 09:18:40;;;;;;;12.80;3.90;;;25.30;99.90;;;;;;5069644;28;20051;-73
2022/08/03 09:21:13;;;;;;;17.00;3.30;;;25.50;99.90;;;;;;5072142;28;20041;-73
2022/08/03 09:23:53;;;;;;;19.48;3.35;;;25.50;99.90;;;;;;5067843;28;20032;-73
2022/08/03 09:26:26;;;;;;;14.77;3.05;;;25.50;99.90;;;;;;5065799;28;20040;-73
2022/08/03 09:28:59;;;;;;;17.10;3.80;;;25.50;99.90;;;;;;5053845;28;20076;-73
2022/08/03 09:31:45;;;;;;;16.35;3.30;;;25.40;99.90;;;;;;5067457;28;20162;-73
2022/08/03 09:34:13;;;;;;;21.77;3.83;;;25.60;99.90;;;;;;5062993;28;20101;-73
2022/08/03 09:36:47;;;;;;;20.40;3.53;;;25.80;99.90;;;;;;5060757;28;20036;-73
2022/08/03 09:39:20;;;;;;;16.88;3.47;;;25.70;99.90;;;;;;5071596;28;20052;-73
2022/08/03 09:42:02;;;;;;;16.35;3.15;;;25.90;99.90;;;;;;5067280;28;20047;-73
2022/08/03 09:44:42;;;;;;;21.60;3.63;;;25.90;99.90;;;;;;5069991;28;20033;-73
2022/08/03 09:47:09;;;;;;;14.75;3.40;;;26.00;99.90;;;;;;5069336;28;20044;-73
2022/08/03 09:49:42;;;;;;;15.27;3.63;;;26.30;99.90;;;;;;5068482;28;20041;-73
2022/08/03 09:52:14;;;;;;;11.95;2.90;;;26.40;99.90;;;;;;5059738;28;20071;-73
2022/08/03 09:54:41;;;;;;;17.80;3.72;;;26.60;99.90;;;;;;5069594;28;20176;-73
2022/08/03 09:57:07;;;;;;;18.88;3.30;;;26.70;99.90;;;;;;5069082;28;20051;-73
2022/08/03 09:59:33;;;;;;;17.75;3.47;;;26.60;99.90;;;;;;5069497;28;20037;-73
2022/08/03 10:02:00;;;;;;;15.73;3.75;;;26.70;99.90;;;;;;5070788;28;20064;-73
2022/08/03 10:04:26;;;;;;;18.17;3.50;;;26.90;99.90;;;;;;5068653;28;20032;-73
2022/08/03 10:07:22;;;;;;;14.95;3.40;;;27.10;99.90;;;;;;5070729;28;20028;-73
2022/08/03 10:10:01;;;;;;;14.75;3.33;;;27.40;99.90;;;;;;5062440;28;20044;-73
2022/08/03 10:12:28;;;;;;;17.80;3.60;;;27.60;99.90;;;;;;5070833;28;20044;-72
2022/08/03 10:14:54;;;;;;;14.95;3.30;;;27.40;99.90;;;;;;5061013;28;20051;-73
2022/08/03 10:17:21;;;;;;;19.27;3.58;;;27.60;99.90;;;;;;5070815;28;20040;-73
2022/08/03 10:19:48;;;;;;;17.55;3.28;;;27.70;99.90;;;;;;5067808;28;20049;-72
2022/08/03 10:22:26;;;;;;;18.80;3.42;;;27.80;99.90;;;;;;5063334;28;20062;-73
2022/08/03 10:24:59;;;;;;;17.55;3.42;;;27.90;99.90;;;;;;5063712;28;20037;-73
2022/08/03 10:27:31;;;;;;;20.88;3.38;;;27.70;99.90;;;;;;5069321;28;20037;-73
2022/08/03 10:30:02;;;;;;;19.05;3.53;;;27.70;99.90;;;;;;5068301;28;20119;-73
2022/08/03 10:32:39;;;;;;;21.30;3.65;;;27.70;99.90;;;;;;5065601;28;20036;-73
2022/08/03 10:35:09;;;;;;;17.88;3.88;;;28.10;99.90;;;;;;5063273;28;20052;-73
2022/08/03 10:37:44;;;;;;;20.65;3.83;;;28.30;99.90;;;;;;5069192;28;20040;-73
2022/08/03 10:40:15;;;;;;;17.20;3.40;;;28.60;99.90;;;;;;5065262;28;20384;-73
2022/08/03 10:42:45;;;;;;;14.20;3.40;;;28.80;99.90;;;;;;5061498;28;20066;-73
2022/08/03 10:45:22;;;;;;;16.48;3.70;;;29.10;99.90;;;;;;5062180;28;20085;-73
2022/08/03 10:47:50;;;;;;;21.58;3.95;;;29.30;99.90;;;;;;5063994;28;20045;-73
2022/08/03 10:50:16;;;;;;;19.40;4.10;;;29.50;99.90;;;;;;5077655;28;20101;-73
2022/08/03 10:53:06;;;;;;;18.83;3.70;;;29.10;99.90;;;;;;5069276;28;20093;-73
2022/08/03 10:58:37;;;;;;;19.88;3.50;;;29.50;99.90;;;;;;5067490;28;20127;-73
2022/08/03 11:01:12;;;;;;;26.15;3.88;;;29.60;99.90;;;;;;5065976;28;20041;-73
2022/08/03 11:03:53;;;;;;;18.13;3.42;;;29.80;99.90;;;;;;5065209;28;20079;-73
2022/08/03 11:06:24;;;;;;;20.83;4.05;;;29.70;99.10;;;;;;5066955;28;20024;-73
2022/08/03 11:09:08;;;;;;;24.38;3.63;;;29.80;99.90;;;;;;5068757;28;20097;-79
2022/08/03 11:11:35;;;;;;;18.45;3.88;;;29.80;96.80;;;;;;5057369;28;20052;-80
2022/08/03 11:14:18;;;;;;;18.90;3.35;;;29.40;96.90;;;;;;5063400;28;20051;-79
2022/08/03 11:16:51;;;;;;;17.70;3.75;;;29.40;99.90;;;;;;5068475;28;20060;-79
2022/08/03 11:19:21;;;;;;;17.25;3.25;;;29.50;99.90;;;;;;5076275;28;20040;-79
2022/08/03 11:21:47;;;;;;;19.35;3.15;;;29.50;99.20;;;;;;5080314;28;20036;-79
2022/08/03 11:24:36;;;;;;;24.10;4.25;;;29.70;99.90;;;;;;5084669;28;20047;-79
2022/08/03 11:27:20;;;;;;;15.02;3.30;;;29.90;98.80;;;;;;5078017;28;20041;-79
2022/08/03 11:29:56;;;;;;;20.25;3.95;;;30.10;99.40;;;;;;5077916;28;20041;-79
2022/08/03 11:32:42;;;;;;;18.50;3.40;;;30.20;98.10;;;;;;5063774;28;20083;-72
2022/08/03 11:35:15;;;;;;;19.13;4.00;;;30.40;98.90;;;;;;5065372;28;20459;-72
2022/08/03 11:37:57;;;;;;;15.13;3.83;;;30.30;94.10;;;;;;5067022;28;20098;-73
2022/08/03 11:40:35;;;;;;;16.87;3.50;;;30.30;95.90;;;;;;5069150;28;20504;-72
2022/08/03 11:43:02;;;;;;;14.80;3.30;;;30.20;95.30;;;;;;5079135;28;20102;-73
2022/08/03 11:45:30;;;;;;;16.45;3.35;;;30.20;95.20;;;;;;5071430;28;20056;-73
2022/08/03 11:47:57;;;;;;;17.00;3.47;;;30.40;95.80;;;;;;5067656;28;20045;-73
2022/08/03 11:50:23;;;;;;;15.50;3.30;;;30.70;95.40;;;;;;5061032;28;20068;-73
2022/08/03 11:52:49;;;;;;;19.27;3.20;;;30.90;93.40;;;;;;5063180;28;20040;-72
2022/08/03 11:55:19;;;;;;;17.88;3.85;;;31.10;93.60;;;;;;5063638;28;20075;-73
2022/08/03 11:57:46;;;;;;;17.77;3.33;;;31.30;91.60;;;;;;5060507;28;20044;-72
2022/08/03 12:00:26;;;;;;;18.33;3.38;;;31.40;91.80;;;;;;5064039;28;20517;-73
2022/08/03 12:02:57;;;;;;;15.98;3.33;;;31.60;91.60;;;;;;5063123;28;20124;-73
2022/08/03 12:05:41;;;;;;;17.67;3.03;;;31.80;93.40;;;;;;5064396;28;20036;-73
2022/08/03 12:08:09;;;;;;;13.77;3.08;;;32.00;87.30;;;;;;5066774;28;20055;-72
2022/08/03 12:10:36;;;;;;;15.05;3.50;;;31.80;87.40;;;;;;5084494;28;20103;-73
2022/08/03 12:13:07;;;;;;;12.80;2.92;;;31.90;88.20;;;;;;5067119;28;20036;-73
2022/08/03 12:15:34;;;;;;;;;;;32.10;86.90;;;;;;5066546;28;20101;-73
2022/08/03 12:18:02;;;;;;;17.60;3.50;;;32.00;80.90;;;;;;5068551;28;19931;-73
2022/08/03 12:20:30;;;;;;;18.73;3.17;;;31.90;83.40;;;;;;5066621;28;20072;-73
2022/08/03 12:23:03;;;;;;;17.55;3.78;;;32.20;86.40;;;;;;5065537;28;20040;-73
2022/08/03 12:25:29;;;;;;;21.65;3.40;;;32.10;84.80;;;;;;5066575;28;20090;-73
2022/08/03 12:28:10;;;;;;;14.50;3.45;;;32.30;83.70;;;;;;5066448;28;20045;-72
2022/08/03 12:30:39;;;;;;;12.98;3.50;;;32.20;80.50;;;;;;5067009;28;20032;-73
2022/08/03 12:33:16;;;;;;;14.82;3.22;;;32.20;77.30;;;;;;5049429;28;20090;-73
2022/08/03 12:35:42;;;;;;;18.40;3.33;;;32.30;79.30;;;;;;5067144;28;20043;-73
2022/08/03 12:38:09;;;;;;;15.88;3.47;;;32.40;83.60;;;;;;5065041;28;20051;-73
2022/08/03 12:40:34;;;;;;;12.18;3.03;;;32.60;83.50;;;;;;5065943;28;20482;-73
2022/08/03 12:43:00;;;;;;;16.92;3.10;;;32.80;79.10;;;;;;5065996;28;20047;-73
2022/08/03 12:45:30;;;;;;;17.95;3.35;;;32.60;72.20;;;;;;5065827;28;20052;-73
2022/08/03 12:48:00;;;;;;;11.18;2.60;;;32.30;75.10;;;;;;5066248;28;20086;-73
2022/08/03 12:50:32;;;;;;;13.40;2.85;;;32.30;76.90;;;;;;5065507;28;20059;-72
2022/08/03 12:53:00;;;;;;;17.73;3.35;;;32.30;78.90;;;;;;5069359;28;20044;-73
2022/08/03 12:55:35;;;;;;;14.30;3.00;;;32.60;78.50;;;;;;5064926;28;20047;-73
2022/08/03 12:58:06;;;;;;;13.20;3.17;;;32.50;75.30;;;;;;5082069;28;20032;-73
2022/08/03 13:00:33;;;;;;;17.85;3.20;;;32.80;76.80;;;;;;5068856;28;20051;-73
2022/08/03 13:03:01;;;;;;;15.60;3.30;;;32.60;74.20;;;;;;5066607;28;20044;-74